createdAt,value
2018-07-19T00:02:14.366Z,23.50
2018-07-19T00:07:19.158Z,23.50
2018-07-19T00:12:24.811Z,23.40
2018-07-19T00:17:29.479Z,23.30
2018-07-19T00:22:35.246Z,22.60
2018-07-19T00:27:41.625Z,22.50
2018-07-19T00:32:46.527Z,22.00
2018-07-19T00:37:51.927Z,21.80
2018-07-19T00:42:56.738Z,21.40
2018-07-19T00:48:01.655Z,21.40
2018-07-19T00:53:06.342Z,21.10
2018-07-19T00:58:11.015Z,21.30
2018-07-19T01:03:15.581Z,21.40
2018-07-19T01:08:20.506Z,21.60
2018-07-19T01:13:25.546Z,21.20
2018-07-19T01:18:30.468Z,21.00
2018-07-19T01:23:35.517Z,21.00
2018-07-19T01:28:40.319Z,21.40
2018-07-19T01:33:45.473Z,21.30
2018-07-19T01:38:50.281Z,21.20
2018-07-19T01:43:55.076Z,21.20
2018-07-19T01:48:59.637Z,21.30
2018-07-19T01:54:04.338Z,21.30
2018-07-19T01:59:09.608Z,21.20
2018-07-19T02:04:14.405Z,21.50
2018-07-19T02:09:19.208Z,21.70
2018-07-19T02:14:24.136Z,21.80
2018-07-19T02:19:29.058Z,21.50
2018-07-19T02:24:33.853Z,20.20
2018-07-19T02:29:38.654Z,20.30
2018-07-19T02:34:43.592Z,21.20
2018-07-19T02:39:48.498Z,21.80
2018-07-19T02:44:53.179Z,21.90
2018-07-19T02:49:57.983Z,21.90
2018-07-19T02:55:02.673Z,21.80
2018-07-19T03:00:08.556Z,21.70
2018-07-19T03:05:13.113Z,21.80
2018-07-19T03:10:17.855Z,21.40
2018-07-19T03:15:22.519Z,21.40
2018-07-19T03:20:27.274Z,21.40
2018-07-19T03:25:32.320Z,21.40
2018-07-19T03:30:37.245Z,21.60
2018-07-19T03:35:41.804Z,21.60
2018-07-19T03:40:46.491Z,21.60
2018-07-19T03:45:51.165Z,21.50
2018-07-19T03:50:56.101Z,21.50
2018-07-19T03:56:01.850Z,21.50
2018-07-19T04:06:10.973Z,21.60
2018-07-19T04:11:16.501Z,21.60
2018-07-19T04:16:21.180Z,21.70
2018-07-19T04:21:25.863Z,21.70
2018-07-19T04:26:31.387Z,21.80
2018-07-19T04:31:36.303Z,21.90
2018-07-19T04:36:40.868Z,21.90
2018-07-19T04:41:45.427Z,22.00
2018-07-19T04:46:53.829Z,22.00
2018-07-19T04:51:58.754Z,21.90
2018-07-19T04:57:03.556Z,21.50
2018-07-19T05:02:08.974Z,21.60
2018-07-19T05:07:13.638Z,21.80
2018-07-19T05:12:18.687Z,21.50
2018-07-19T05:17:23.251Z,21.80
2018-07-19T05:22:27.926Z,21.70
2018-07-19T05:27:32.729Z,21.80
2018-07-19T05:32:37.532Z,22.00
2018-07-19T05:37:42.275Z,22.30
2018-07-19T05:42:46.894Z,22.50
2018-07-19T05:47:53.016Z,22.80
2018-07-19T05:52:57.818Z,23.00
2018-07-19T05:58:03.463Z,23.00
2018-07-19T06:03:08.541Z,23.00
2018-07-19T06:08:13.711Z,23.40
2018-07-19T06:13:18.600Z,23.20
2018-07-19T06:18:23.508Z,23.90
2018-07-19T06:23:28.071Z,24.20
2018-07-19T06:28:32.872Z,24.10
2018-07-19T06:33:37.794Z,24.00
2018-07-19T06:38:43.083Z,23.10
2018-07-19T06:43:47.652Z,23.40
2018-07-19T06:53:56.402Z,23.30
2018-07-19T06:59:01.028Z,23.80
2018-07-19T07:04:05.670Z,23.80
2018-07-19T07:09:11.539Z,23.60
2018-07-19T07:14:16.224Z,24.70
2018-07-19T07:19:20.900Z,24.60
2018-07-19T07:24:25.575Z,25.10
2018-07-19T07:29:30.268Z,25.50
2018-07-19T07:34:35.181Z,25.40
2018-07-19T07:39:39.743Z,25.40
2018-07-19T07:44:44.544Z,24.90
2018-07-19T07:49:49.228Z,24.30
2018-07-19T07:54:55.284Z,25.80
2018-07-19T08:00:01.233Z,27.40
2018-07-19T08:05:07.002Z,25.80
2018-07-19T08:10:14.560Z,26.50
2018-07-19T08:15:19.375Z,26.20
2018-07-19T08:20:24.278Z,25.90
2018-07-19T08:25:29.203Z,26.40
2018-07-19T08:30:34.015Z,29.30
2018-07-19T08:35:38.685Z,29.90
2018-07-19T08:40:43.610Z,27.60
2018-07-19T08:45:48.539Z,28.90
2018-07-19T08:50:54.302Z,28.80
2018-07-19T09:01:03.070Z,28.40
2018-07-19T09:06:07.978Z,29.50
2018-07-19T09:11:12.900Z,28.40
2018-07-19T09:16:17.606Z,31.50
2018-07-19T09:21:22.630Z,30.30
2018-07-19T09:26:28.032Z,31.10
2018-07-19T09:31:33.130Z,30.30
2018-07-19T09:36:38.230Z,30.80
2018-07-19T09:46:48.448Z,31.50
2018-07-19T09:51:53.361Z,29.60
2018-07-19T09:56:59.127Z,31.60
2018-07-19T10:02:04.164Z,33.40
2018-07-19T10:07:10.533Z,32.20
2018-07-19T10:12:15.457Z,32.30
2018-07-19T10:17:20.506Z,33.40
2018-07-19T10:22:25.296Z,34.00
2018-07-19T10:27:30.334Z,34.40
2018-07-19T10:32:35.272Z,34.20
2018-07-19T10:37:40.088Z,34.90
2018-07-19T10:42:44.863Z,35.90
2018-07-19T10:47:49.662Z,34.60
2018-07-19T10:52:54.946Z,32.60
2018-07-19T10:57:59.502Z,32.50
2018-07-19T11:03:04.306Z,33.90
2018-07-19T11:08:08.993Z,34.10
2018-07-19T11:13:13.808Z,33.80
2018-07-19T11:18:18.477Z,34.90
2018-07-19T11:23:23.634Z,35.10
2018-07-19T11:28:28.337Z,33.50
2018-07-19T11:33:33.130Z,35.80
2018-07-19T11:38:38.164Z,33.60
2018-07-19T11:43:43.081Z,35.60
2018-07-19T11:48:48.124Z,33.90
2018-07-19T11:53:52.815Z,35.90
2018-07-19T11:58:57.613Z,36.50
2018-07-19T12:04:02.895Z,38.30
2018-07-19T12:09:09.976Z,38.40
2018-07-19T12:14:14.655Z,40.30
2018-07-19T12:19:19.578Z,41.40
2018-07-19T12:24:24.379Z,39.20
2018-07-19T12:29:29.186Z,39.40
2018-07-19T12:34:33.983Z,38.90
2018-07-19T12:39:38.790Z,39.30
2018-07-19T12:44:43.470Z,39.30
2018-07-19T12:49:48.028Z,39.30
2018-07-19T12:54:53.321Z,37.80
2018-07-19T12:59:58.472Z,37.10
2018-07-19T13:05:03.274Z,36.30
2018-07-19T13:10:08.079Z,32.60
2018-07-19T13:15:12.970Z,31.40
2018-07-19T13:20:18.641Z,32.40
2018-07-19T13:25:23.327Z,34.80
2018-07-19T13:30:28.126Z,38.10
2018-07-19T13:35:33.047Z,36.70
2018-07-19T13:40:37.768Z,36.10
2018-07-19T13:45:42.674Z,35.90
2018-07-19T13:50:47.692Z,34.30
2018-07-19T13:55:52.615Z,34.10
2018-07-19T14:00:57.665Z,32.10
2018-07-19T14:11:07.383Z,32.80
2018-07-19T14:16:12.063Z,33.80
2018-07-19T14:21:17.015Z,34.40
2018-07-19T14:26:22.028Z,34.50
2018-07-19T14:31:26.829Z,34.40
2018-07-19T14:36:31.633Z,33.50
2018-07-19T14:46:41.597Z,32.20
2018-07-19T14:51:46.893Z,32.30
2018-07-19T14:56:51.569Z,32.80
2018-07-19T15:01:56.254Z,31.70
2018-07-19T15:07:00.968Z,33.80
2018-07-19T15:12:05.889Z,32.80
2018-07-19T15:23:06.929Z,32.80
2018-07-19T15:28:11.740Z,33.50
2018-07-19T15:33:16.545Z,35.40
2018-07-19T15:38:21.455Z,34.80
2018-07-19T15:43:26.402Z,33.60
2018-07-19T15:48:31.062Z,32.70
2018-07-19T15:53:35.984Z,33.50
2018-07-19T15:58:40.668Z,31.90
2018-07-19T16:03:45.466Z,31.40
2018-07-19T16:08:50.149Z,32.30
2018-07-19T16:13:54.982Z,33.30
2018-07-19T16:18:59.992Z,33.40
2018-07-19T16:24:07.917Z,33.70
2018-07-19T16:39:20.776Z,31.30
2018-07-19T16:44:25.684Z,32.00
2018-07-19T16:49:31.088Z,33.00
2018-07-19T16:54:35.766Z,33.10
2018-07-19T16:59:40.449Z,32.90
2018-07-19T17:04:46.093Z,32.70
2018-07-19T17:09:50.787Z,32.60
2018-07-19T17:14:56.300Z,32.40
2018-07-19T17:20:00.981Z,32.00
2018-07-19T17:25:05.659Z,31.70
2018-07-19T17:30:12.741Z,31.10
2018-07-19T17:35:17.431Z,31.10
2018-07-19T17:40:22.105Z,31.00
2018-07-19T17:45:26.939Z,30.80
2018-07-19T17:50:31.593Z,30.70
2018-07-19T17:55:36.401Z,30.90
2018-07-19T18:00:41.095Z,31.00
2018-07-19T18:05:45.880Z,30.90
2018-07-19T18:10:50.556Z,30.90
2018-07-19T18:15:55.366Z,31.10
2018-07-19T18:21:00.402Z,31.30
2018-07-19T18:26:05.205Z,31.10
2018-07-19T18:31:10.125Z,31.10
2018-07-19T18:36:14.687Z,31.20
2018-07-19T18:41:19.489Z,31.00
2018-07-19T18:46:24.652Z,30.90
2018-07-19T18:51:32.576Z,30.30
2018-07-19T18:56:37.494Z,30.30
2018-07-19T19:01:42.550Z,30.10
2018-07-19T19:06:49.639Z,29.80
2018-07-19T19:12:00.196Z,29.40
2018-07-19T19:17:04.995Z,29.10
2018-07-19T19:22:11.228Z,28.90
2018-07-19T19:27:16.506Z,28.80
2018-07-19T19:32:22.531Z,28.70
2018-07-19T19:37:27.315Z,28.50
2018-07-19T19:42:32.234Z,28.40
2018-07-19T19:47:37.276Z,28.20
2018-07-19T19:57:46.163Z,27.90
2018-07-19T20:02:50.854Z,27.60
2018-07-19T20:07:55.526Z,27.40
2018-07-19T20:13:01.052Z,27.30
2018-07-19T20:18:05.738Z,27.10
2018-07-19T20:23:10.672Z,27.00
2018-07-19T20:28:15.451Z,26.80
2018-07-19T20:33:20.253Z,26.60
2018-07-19T20:38:25.176Z,26.50
2018-07-19T20:43:29.791Z,26.50
2018-07-19T20:48:34.674Z,26.30
2018-07-19T20:53:39.705Z,26.00
2018-07-19T20:58:44.521Z,25.90
2018-07-19T21:03:49.555Z,25.80
2018-07-19T21:08:54.727Z,25.70
2018-07-19T21:13:59.638Z,25.70
2018-07-19T21:19:04.626Z,25.60
2018-07-19T21:24:09.356Z,25.60
2018-07-19T21:29:14.035Z,25.60
2018-07-19T21:34:18.721Z,25.50
2018-07-19T21:39:23.519Z,25.50
2018-07-19T21:44:28.448Z,25.30
2018-07-19T21:49:33.725Z,25.20
2018-07-19T21:54:38.536Z,25.20
2018-07-19T22:09:52.093Z,25.10
2018-07-19T22:14:57.137Z,25.10
2018-07-19T22:20:02.075Z,25.10
2018-07-19T22:25:06.986Z,24.90
2018-07-19T22:30:12.038Z,24.80
2018-07-19T22:35:16.946Z,24.80
2018-07-19T22:40:21.867Z,24.70
2018-07-19T22:45:26.922Z,24.80
2018-07-19T22:50:32.072Z,24.70
2018-07-19T22:55:36.934Z,24.60
2018-07-19T23:00:41.800Z,24.70
2018-07-19T23:05:46.598Z,24.70
2018-07-19T23:10:51.522Z,24.70
2018-07-19T23:15:56.442Z,24.60
2018-07-19T23:21:01.240Z,24.50
2018-07-19T23:26:06.162Z,24.30
2018-07-19T23:31:11.204Z,24.30
2018-07-19T23:36:20.089Z,24.30
2018-07-19T23:41:58.494Z,24.30
2018-07-19T23:47:09.303Z,24.20
2018-07-19T23:52:14.216Z,24.10
2018-07-19T23:57:19.209Z,24.10
